Time;durP1;ratioP1;P1;durP2;ratioP2;P2;SDS_P1;SDS_P2;PMS_P1;PMS_P2;Temp;Humidity;BMP_temperature;BMP_pressure;BME280_temperature;BME280_humidity;BME280_pressure;Samples;Min_cycle;Max_cycle;Signal;HPM_P1;HPM_P2
2022/05/27 00:01:16;;;;;;;;;1.33;0.67;;;;;33.19;21.75;102071.97;4915721;28;46999;-78
2022/05/27 00:03:41;;;;;;;;;0.67;0.67;;;;;32.94;21.90;102069.69;4916806;28;45341;-78
2022/05/27 00:06:07;;;;;;;;;0.67;0.67;;;;;32.90;22.18;102047.00;4915984;28;45429;-78
2022/05/27 00:08:34;;;;;;;;;0.00;0.00;;;;;32.98;21.90;102055.69;4916223;28;45507;-78
2022/05/27 00:11:00;;;;;;;;;0.67;0.67;;;;;32.91;21.60;102036.88;4915757;28;47023;-78
2022/05/27 00:13:27;;;;;;;;;0.67;0.00;;;;;32.92;21.65;102038.66;4917050;28;45413;-78
2022/05/27 00:15:53;;;;;;;;;1.67;0.00;;;;;33.03;21.97;102044.44;4917461;28;45522;-78
2022/05/27 00:18:18;;;;;;;;;1.00;1.00;;;;;33.15;21.32;102045.59;4916394;28;45314;-78
2022/05/27 00:20:44;;;;;;;;;0.33;0.33;;;;;33.30;21.39;102046.63;4916987;28;45894;-78
2022/05/27 00:23:10;;;;;;;;;0.67;0.67;;;;;33.39;21.44;102051.63;4915791;28;45491;-78
2022/05/27 00:25:36;;;;;;;;;1.00;1.00;;;;;33.50;21.53;102046.41;4917211;28;45505;-78
2022/05/27 00:28:02;;;;;;;;;1.00;1.00;;;;;33.30;21.56;102039.25;4916702;28;46493;-78
2022/05/27 00:30:28;;;;;;;;;1.00;1.00;;;;;33.30;21.61;102030.13;4915508;28;48388;-78
2022/05/27 00:32:54;;;;;;;;;1.00;1.00;;;;;33.17;22.29;102043.66;4915277;28;45474;-78
2022/05/27 00:35:20;;;;;;;;;0.00;0.00;;;;;33.19;22.00;102030.72;4916875;28;45404;-78
2022/05/27 00:37:46;;;;;;;;;2.00;0.67;;;;;33.16;21.91;102034.53;4917040;28;45459;-78
2022/05/27 00:40:13;;;;;;;;;1.67;0.00;;;;;33.11;22.03;102020.16;4916528;28;45360;-78
2022/05/27 00:42:43;;;;;;;;;0.00;0.00;;;;;33.16;21.69;102025.38;4916799;28;45337;-78
2022/05/27 00:45:16;;;;;;;;;1.00;1.00;;;;;33.44;21.60;102021.97;4916724;28;45365;-78
2022/05/27 00:47:43;;;;;;;;;0.67;0.67;;;;;33.32;22.27;102017.19;4916325;28;45267;-78
2022/05/27 00:50:11;;;;;;;;;1.33;1.33;;;;;33.39;22.15;102009.47;4916425;28;45498;-78
2022/05/27 00:52:39;;;;;;;;;1.33;1.33;;;;;33.53;21.71;102017.81;4916606;28;45365;-78
2022/05/27 00:55:08;;;;;;;;;0.67;0.67;;;;;33.48;22.05;102015.31;4916944;28;45328;-78
2022/05/27 00:57:40;;;;;;;;;1.00;1.00;;;;;33.15;22.15;101994.25;4916607;28;45387;-78
2022/05/27 01:00:18;;;;;;;;;1.00;1.00;;;;;33.38;21.97;102022.34;4916283;28;45514;-78
2022/05/27 01:02:44;;;;;;;;;0.67;0.67;;;;;33.38;22.03;102010.47;4916352;28;45441;-78
2022/05/27 01:05:13;;;;;;;;;0.67;0.00;;;;;33.44;22.19;102016.47;4916591;28;45459;-78
2022/05/27 01:07:38;;;;;;;;;1.00;1.00;;;;;33.48;21.36;102022.69;4915410;28;45663;-78
2022/05/27 01:10:07;;;;;;;;;1.00;1.00;;;;;33.28;21.89;102004.59;4916261;28;46084;-78
2022/05/27 01:12:56;;;;;;;;;2.00;0.67;;;;;33.37;21.81;102025.19;4915269;28;45413;-78
2022/05/27 01:15:52;;;;;;;;;3.00;0.00;;;;;33.36;22.09;102018.78;4920969;28;45482;-78
2022/05/27 01:21:52;;;;;;;;;1.00;1.00;;;;;33.18;21.95;102026.22;4916046;28;45746;-78
2022/05/27 01:24:51;;;;;;;;;1.00;1.00;;;;;33.22;22.06;102021.41;4916047;28;45378;-78
2022/05/27 01:27:47;;;;;;;;;1.33;1.33;;;;;33.20;22.35;102015.13;4916063;28;45325;-78
2022/05/27 01:30:25;;;;;;;;;2.00;1.00;;;;;33.07;22.39;102021.31;4915744;28;45589;-77
2022/05/27 01:33:01;;;;;;;;;2.00;1.00;;;;;33.16;22.13;102012.53;4914986;28;47997;-78
2022/05/27 01:35:45;;;;;;;;;2.00;1.00;;;;;33.24;22.37;102019.50;4916089;28;45642;-78
2022/05/27 01:38:16;;;;;;;;;1.33;1.33;;;;;33.07;22.44;101974.56;4916033;28;45443;-78
2022/05/27 01:41:18;;;;;;;;;1.00;1.00;;;;;33.28;21.91;102004.59;4916119;28;45325;-78
2022/05/27 01:43:59;;;;;;;;;1.00;1.00;;;;;32.98;22.77;101995.22;4916141;28;46577;-78
2022/05/27 01:46:41;;;;;;;;;1.00;1.00;;;;;33.04;22.26;102002.25;4914340;28;45725;-78
2022/05/27 01:49:34;;;;;;;;;0.67;0.67;;;;;33.02;22.10;102008.78;4916144;28;45412;-78
2022/05/27 01:52:19;;;;;;;;;0.00;0.00;;;;;33.09;22.41;102004.72;4915958;28;45359;-78
2022/05/27 01:55:05;;;;;;;;;0.67;0.67;;;;;32.81;22.31;101974.19;4915727;28;45690;-78
2022/05/27 01:57:42;;;;;;;;;0.67;0.67;;;;;32.96;23.02;101999.03;4913208;28;45411;-78
2022/05/27 02:00:22;;;;;;;;;2.33;1.00;;;;;32.86;22.46;101995.03;4914396;28;45473;-78
2022/05/27 02:02:58;;;;;;;;;1.33;1.33;;;;;32.91;22.53;101998.38;4915958;28;45563;-78
2022/05/27 02:05:36;;;;;;;;;0.67;0.67;;;;;32.89;22.80;101995.72;4915490;28;45732;-78
2022/05/27 02:08:12;;;;;;;;;0.67;0.67;;;;;33.08;22.41;102003.84;4915733;28;45425;-78
2022/05/27 02:11:19;;;;;;;;;1.00;1.00;;;;;33.18;22.73;102005.09;4914518;28;45449;-78
2022/05/27 02:13:47;;;;;;;;;0.67;0.67;;;;;33.11;22.71;102003.66;4954608;28;45497;-78
2022/05/27 02:16:22;;;;;;;;;2.67;1.67;;;;;33.04;22.86;102002.25;4954414;28;45513;-78
2022/05/27 02:19:05;;;;;;;;;1.67;1.67;;;;;33.08;22.81;102002.94;4954635;28;45548;-78
2022/05/27 02:21:40;;;;;;;;;0.67;0.67;;;;;32.86;22.87;101981.28;4954797;28;45528;-78
2022/05/27 02:24:24;;;;;;;;;1.33;0.67;;;;;33.01;22.57;102002.41;4954492;28;45542;-78
2022/05/27 02:26:57;;;;;;;;;2.67;1.33;;;;;32.95;22.99;102000.00;4954304;28;47119;-78
2022/05/27 02:29:28;;;;;;;;;2.67;1.67;;;;;32.90;22.52;101999.34;4953918;28;45343;-78
2022/05/27 02:32:01;;;;;;;;;3.00;0.33;;;;;32.87;22.59;101988.53;4938506;28;45435;-78
2022/05/27 02:37:28;;;;;;;;;1.33;1.33;;;;;32.72;22.40;101999.41;4954119;28;45556;-78
2022/05/27 02:39:58;;;;;;;;;1.33;0.67;;;;;32.60;22.55;101967.06;4938126;28;45395;-78
2022/05/27 02:42:42;;;;;;;;;2.33;1.67;;;;;32.76;22.61;102003.78;4953839;28;45465;-78
2022/05/27 02:45:26;;;;;;;;;1.00;1.00;;;;;32.70;22.66;102004.13;4954467;28;45435;-78
2022/05/27 02:48:00;;;;;;;;;1.33;1.33;;;;;32.57;23.20;102008.47;4954388;28;45455;-78
2022/05/27 02:50:48;;;;;;;;;2.00;2.00;;;;;32.53;22.97;101998.59;4899249;28;45506;-78
2022/05/27 02:53:13;;;;;;;;;1.00;1.00;;;;;32.53;23.28;102006.84;4896176;28;45414;-78
2022/05/27 02:55:59;;;;;;;;;2.00;2.00;;;;;32.39;23.22;101983.78;4910767;28;45408;-78
2022/05/27 02:58:24;;;;;;;;;1.00;1.00;;;;;32.41;23.12;101992.81;4895583;28;45400;-78
2022/05/27 03:00:50;;;;;;;;;3.00;2.00;;;;;32.32;23.25;101979.56;4910663;28;45313;-78
2022/05/27 03:03:15;;;;;;;;;1.67;1.67;;;;;32.49;22.70;101979.56;4896028;28;45396;-78
2022/05/27 03:05:50;;;;;;;;;2.00;1.00;;;;;32.57;23.31;102005.72;4896122;28;45499;-78
2022/05/27 03:08:19;;;;;;;;;1.00;1.00;;;;;32.56;23.15;102004.84;4895934;28;46422;-78
2022/05/27 03:10:57;;;;;;;;;1.33;1.33;;;;;32.35;22.46;101964.78;4898663;28;45567;-78
2022/05/27 03:13:28;;;;;;;;;2.33;2.00;;;;;32.61;23.03;101999.97;4898646;28;45483;-78
2022/05/27 03:16:05;;;;;;;;;2.67;2.67;;;;;32.37;23.24;102004.94;4898916;28;45658;-78
2022/05/27 03:19:16;;;;;;;;;3.00;2.00;;;;;32.37;23.21;102004.06;4915789;28;45328;-77
2022/05/27 03:21:49;;;;;;;;;2.67;2.00;;;;;32.53;23.06;102006.84;4940809;28;45599;-77
2022/05/27 03:24:40;;;;;;;;;2.33;2.33;;;;;32.39;22.86;102004.84;4957232;28;45403;-77
2022/05/27 03:27:33;;;;;;;;;2.00;2.00;;;;;32.44;22.99;102009.13;4956942;28;45354;-77
2022/05/27 03:30:11;;;;;;;;;4.00;2.00;;;;;32.31;22.99;102008.00;4957341;28;46571;-77
2022/05/27 03:32:47;;;;;;;;;2.67;2.67;;;;;32.25;23.03;102005.56;4957040;28;45403;-77
2022/05/27 03:35:33;;;;;;;;;4.00;3.00;;;;;32.48;22.72;102004.38;4940807;28;45527;-78
2022/05/27 03:38:12;;;;;;;;;3.00;2.67;;;;;32.47;22.74;101970.50;4957149;28;45414;-78
2022/05/27 03:41:17;;;;;;;;;2.67;1.67;;;;;32.57;22.99;101986.47;4956535;28;45623;-78
2022/05/27 03:43:44;;;;;;;;;3.33;2.33;;;;;32.78;22.93;101974.31;4940932;28;45808;-78
2022/05/27 03:46:10;;;;;;;;;2.00;2.00;;;;;32.61;22.65;101971.59;4940626;28;45545;-78
2022/05/27 03:48:36;;;;;;;;;4.00;2.00;;;;;32.44;23.00;102008.25;4956750;28;45549;-78
2022/05/27 03:51:17;;;;;;;;;3.00;3.00;;;;;32.28;23.27;102003.56;4956794;28;46503;-79
2022/05/27 03:56:28;;;;;;;;;4.67;1.33;;;;;31.98;23.61;102003.28;4947353;28;45470;-78
2022/05/27 03:58:54;;;;;;;;;3.33;3.33;;;;;31.70;24.23;101974.53;4916147;28;45319;-78
2022/05/27 04:01:25;;;;;;;;;4.00;3.33;;;;;31.98;24.15;102023.41;4917015;28;46065;-78
2022/05/27 04:03:51;;;;;;;;;3.67;3.67;;;;;31.88;23.68;102000.13;4917435;28;45360;-78
2022/05/27 04:06:17;;;;;;;;;6.00;3.67;;;;;32.07;23.68;102001.94;4917316;28;45393;-78
2022/05/27 04:08:42;;;;;;;;;8.00;6.33;;;;;32.12;23.54;102010.78;4917244;28;45459;-78
2022/05/27 04:11:07;;;;;;;;;9.00;6.33;;;;;31.96;23.10;101975.91;4915689;28;48005;-79
2022/05/27 04:13:33;;;;;;;;;9.00;8.67;;;;;31.95;23.84;101986.97;4916951;28;46202;-81
2022/05/27 04:15:58;;;;;;;;;12.00;7.00;;;;;32.08;23.68;102012.84;4922561;28;45480;-77
2022/05/27 04:18:23;;;;;;;;;10.67;10.00;;;;;32.17;23.41;101996.84;4922413;28;45373;-77
2022/05/27 04:20:49;;;;;;;;;12.00;9.33;;;;;32.17;23.47;102000.50;4924024;28;45352;-77
2022/05/27 04:23:14;;;;;;;;;9.33;9.33;;;;;32.40;22.91;102007.50;4926489;28;45426;-77
2022/05/27 04:25:39;;;;;;;;;9.33;8.00;;;;;32.52;23.22;102005.06;4926107;28;45403;-77
2022/05/27 04:28:05;;;;;;;;;11.33;11.33;;;;;32.34;22.87;102001.47;4924817;28;45420;-77
2022/05/27 04:30:30;;;;;;;;;11.00;10.33;;;;;32.34;23.05;102007.84;4927101;28;46218;-77
2022/05/27 04:32:56;;;;;;;;;10.67;10.33;;;;;32.09;23.48;101980.75;4925125;28;45318;-78
2022/05/27 04:35:22;;;;;;;;;9.33;9.00;;;;;32.02;23.65;102004.03;4924152;28;45849;-77
2022/05/27 04:37:48;;;;;;;;;11.33;11.33;;;;;31.91;23.88;102016.44;4927381;28;45538;-77
2022/05/27 04:40:13;;;;;;;;;13.00;11.33;;;;;31.82;23.50;101978.50;4923673;28;46374;-77
2022/05/27 04:42:39;;;;;;;;;8.67;8.67;;;;;32.09;23.35;102030.19;4923306;28;45386;-77
2022/05/27 04:45:05;;;;;;;;;9.00;9.00;;;;;31.94;23.66;102012.63;4936210;28;45468;-76
2022/05/27 04:47:32;;;;;;;;;9.33;9.33;;;;;31.73;24.12;102003.63;4925381;28;45384;-78
2022/05/27 04:49:58;;;;;;;;;11.00;11.00;;;;;32.01;23.75;102014.13;4920451;28;46518;-77
2022/05/27 04:52:27;;;;;;;;;8.67;7.00;;;;;32.03;23.36;101987.47;4932119;28;45703;-77
2022/05/27 04:54:53;;;;;;;;;12.00;7.33;;;;;32.13;24.08;102009.84;4924873;28;45486;-78
2022/05/27 04:57:23;;;;;;;;;7.00;5.67;;;;;32.20;23.89;102018.69;4916690;28;45456;-79
2022/05/27 04:59:51;;;;;;;;;7.33;6.33;;;;;32.27;23.39;102022.88;4919322;28;45356;-79
2022/05/27 05:02:20;;;;;;;;;8.67;6.67;;;;;32.28;23.52;102027.41;4918260;28;45698;-78
2022/05/27 05:04:46;;;;;;;;;10.33;8.67;;;;;32.26;23.87;102021.97;4916647;28;45175;-78
2022/05/27 05:07:12;;;;;;;;;6.00;6.00;;;;;32.22;23.48;101997.50;4916768;28;45247;-78
2022/05/27 05:09:40;;;;;;;;;9.33;7.67;;;;;32.38;23.49;102014.94;4914912;28;47106;-78
2022/05/27 05:12:08;;;;;;;;;6.33;6.33;;;;;32.33;23.45;101995.06;4905863;28;45483;-79
2022/05/27 05:14:33;;;;;;;;;8.33;6.33;;;;;32.58;23.43;102030.34;4905821;28;45563;-80
2022/05/27 05:16:59;;;;;;;;;8.00;7.00;;;;;32.60;23.02;102009.19;4928784;28;45551;-78
2022/05/27 05:19:24;;;;;;;;;7.33;7.00;;;;;32.53;23.65;102020.59;4916023;28;45545;-78
2022/05/27 05:21:49;;;;;;;;;8.00;7.00;;;;;32.34;23.50;101998.72;4916275;28;45527;-79
2022/05/27 05:24:15;;;;;;;;;6.33;6.33;;;;;32.11;24.02;101985.22;4916274;28;45572;-78
2022/05/27 05:26:40;;;;;;;;;8.33;8.33;;;;;32.21;23.61;102020.44;4914990;28;45642;-78
2022/05/27 05:29:08;;;;;;;;;6.00;6.00;;;;;32.22;24.17;102003.91;4915986;28;45645;-81
2022/05/27 05:31:34;;;;;;;;;8.00;7.00;;;;;32.34;23.91;102017.97;4915717;28;45376;-82
2022/05/27 05:34:00;;;;;;;;;6.67;6.67;;;;;32.38;23.73;102008.59;4945238;28;45584;-81
2022/05/27 05:36:30;;;;;;;;;7.33;6.67;;;;;32.53;23.46;102009.59;4930706;28;45318;-79
2022/05/27 05:38:57;;;;;;;;;8.33;8.33;;;;;32.41;23.68;101991.94;4915873;28;46436;-81
2022/05/27 05:41:32;;;;;;;;;9.33;8.33;;;;;32.38;23.89;101994.84;4914759;28;45449;-81
2022/05/27 05:43:58;;;;;;;;;8.33;8.33;;;;;32.30;23.97;102011.72;4931683;28;45308;-79
2022/05/27 05:46:25;;;;;;;;;5.67;5.67;;;;;32.18;23.69;101982.16;4935392;28;45481;-80
2022/05/27 05:48:50;;;;;;;;;7.00;7.00;;;;;32.47;23.51;102008.06;4934994;28;45626;-78
2022/05/27 05:51:17;;;;;;;;;7.67;6.33;;;;;32.53;24.07;102023.34;4934865;28;45394;-77
2022/05/27 05:53:42;;;;;;;;;7.33;7.33;;;;;32.15;24.17;101991.44;4905911;28;45557;-81
2022/05/27 05:56:08;;;;;;;;;6.67;6.33;;;;;32.22;23.62;101981.94;4897027;28;45334;-81
2022/05/27 05:58:34;;;;;;;;;7.33;6.33;;;;;32.52;23.46;102040.78;4932686;28;45489;-81
2022/05/27 06:00:59;;;;;;;;;7.33;7.33;;;;;32.42;23.65;102015.66;4935171;28;45584;-78
2022/05/27 06:03:25;;;;;;;;;8.33;7.33;;;;;32.59;23.53;102014.78;4935096;28;45297;-79
2022/05/27 06:05:51;;;;;;;;;7.00;7.00;;;;;32.54;23.80;102030.63;4934744;28;45213;-79
2022/05/27 06:08:18;;;;;;;;;9.33;7.33;;;;;32.38;23.69;102005.84;4933760;28;47277;-79
2022/05/27 06:10:45;;;;;;;;;8.33;7.00;;;;;32.30;24.42;102018.09;4932438;28;45597;-79
2022/05/27 06:13:11;;;;;;;;;9.00;9.00;;;;;32.39;24.02;102014.00;4932975;28;45518;-80
2022/05/27 06:15:37;;;;;;;;;8.67;8.67;;;;;32.29;24.32;102008.09;4934488;28;45523;-79
2022/05/27 06:18:04;;;;;;;;;11.67;9.00;;;;;32.25;24.21;102022.97;4920641;28;46158;-79
2022/05/27 06:20:29;;;;;;;;;10.00;10.00;;;;;32.31;24.25;102021.75;4914854;28;45584;-80
2022/05/27 06:22:55;;;;;;;;;7.33;7.00;;;;;32.01;24.05;101978.44;4914393;28;45456;-80
2022/05/27 06:25:20;;;;;;;;;11.00;9.00;;;;;32.17;24.37;102021.56;4915439;28;45388;-80
2022/05/27 06:27:46;;;;;;;;;8.67;8.67;;;;;32.11;24.14;102034.63;4915209;28;46193;-80
2022/05/27 06:35:41;;;;;;;;;8.67;6.33;;;;;32.28;24.53;102025.53;4915066;28;45495;-80
2022/05/27 06:38:08;;;;;;;;;7.67;7.67;;;;;32.31;24.63;102024.50;4915270;28;46288;-80
2022/05/27 06:40:33;;;;;;;;;14.33;10.00;;;;;32.34;24.64;102024.31;4914964;28;45240;-79
2022/05/27 06:42:58;;;;;;;;;11.33;9.67;;;;;32.65;23.88;102028.16;4915116;28;45332;-80
2022/05/27 06:45:24;;;;;;;;;11.67;9.67;;;;;32.51;23.71;102017.94;4914695;28;45206;-79
2022/05/27 06:47:50;;;;;;;;;8.33;7.67;;;;;32.75;23.83;102023.09;4915167;28;46658;-80
2022/05/27 06:50:15;;;;;;;;;11.67;10.67;;;;;32.80;23.58;102013.63;4914864;28;45403;-80
2022/05/27 06:52:41;;;;;;;;;13.00;13.00;;;;;32.90;23.84;102044.25;4913627;28;45851;-80
2022/05/27 06:55:11;;;;;;;;;9.33;9.33;;;;;32.87;24.16;102032.50;4915615;28;45370;-80
2022/05/27 06:57:37;;;;;;;;;11.33;11.00;;;;;33.02;23.84;102047.28;4914827;28;46084;-80
2022/05/27 07:00:06;;;;;;;;;14.00;13.33;;;;;33.02;23.44;102023.41;4914888;28;45336;-80
2022/05/27 07:02:31;;;;;;;;;7.33;7.00;;;;;32.88;23.71;102024.19;4915176;28;45506;-80
2022/05/27 07:04:56;;;;;;;;;8.00;8.00;;;;;32.73;23.77;102001.19;4914743;28;45440;-80
2022/05/27 07:07:27;;;;;;;;;10.00;9.00;;;;;32.75;24.18;102028.59;4914874;28;45471;-79
2022/05/27 07:09:52;;;;;;;;;8.67;8.67;;;;;32.71;23.62;102040.72;4915142;28;45321;-79
2022/05/27 07:12:18;;;;;;;;;5.33;5.33;;;;;32.63;23.91;102036.50;4914785;28;45541;-79
2022/05/27 07:14:43;;;;;;;;;8.33;6.67;;;;;32.67;24.44;102043.59;4913554;28;45326;-79
2022/05/27 07:17:08;;;;;;;;;8.33;8.00;;;;;32.65;24.00;102059.28;4914699;28;46485;-79
2022/05/27 07:19:35;;;;;;;;;5.67;5.67;;;;;32.58;24.56;102035.84;4914377;28;45312;-79
2022/05/27 07:22:01;;;;;;;;;4.33;4.33;;;;;32.44;24.64;102042.09;4914873;28;45383;-79
2022/05/27 07:24:26;;;;;;;;;6.00;4.67;;;;;32.43;24.58;102054.06;4914867;28;45312;-79
2022/05/27 07:26:52;;;;;;;;;3.67;3.67;;;;;32.23;24.58;102021.25;4914484;28;46165;-79
2022/05/27 07:29:17;;;;;;;;;6.67;3.67;;;;;32.39;24.24;102033.22;4914422;28;45552;-79
2022/05/27 07:31:43;;;;;;;;;2.00;2.00;;;;;32.61;24.60;102059.53;4914682;28;45609;-79
2022/05/27 07:34:09;;;;;;;;;4.00;4.00;;;;;32.51;24.48;102052.75;4914345;28;45396;-79
2022/05/27 07:36:35;;;;;;;;;5.33;4.33;;;;;32.55;24.25;102058.00;4914366;28;46089;-79
2022/05/27 07:39:00;;;;;;;;;3.67;3.67;;;;;32.37;24.82;102045.25;4914463;28;45448;-79
2022/05/27 07:41:27;;;;;;;;;5.00;4.00;;;;;32.55;24.80;102060.75;4913233;28;45414;-80
2022/05/27 07:43:53;;;;;;;;;6.33;5.00;;;;;32.57;24.72;102063.41;4914423;28;45491;-80
2022/05/27 07:46:21;;;;;;;;;6.33;5.67;;;;;32.44;24.72;102033.84;4914331;28;46311;-80
2022/05/27 07:48:47;;;;;;;;;3.67;3.67;;;;;32.51;24.37;102044.53;4913782;28;45481;-80
2022/05/27 07:51:12;;;;;;;;;5.67;5.67;;;;;32.62;24.23;102040.22;4914596;28;45427;-79
2022/05/27 07:53:38;;;;;;;;;8.00;6.67;;;;;32.99;24.53;102048.34;4913145;28;45615;-79
2022/05/27 07:56:06;;;;;;;;;5.33;5.00;;;;;32.88;23.89;102024.19;4916091;28;45411;-79
2022/05/27 07:58:32;;;;;;;;;8.00;6.33;;;;;33.11;24.34;102042.16;4916025;28;45302;-79
2022/05/27 08:00:57;;;;;;;;;6.67;6.00;;;;;32.93;24.11;102004.72;4917285;28;45419;-79
2022/05/27 08:03:22;;;;;;;;;6.00;6.00;;;;;32.95;23.72;102011.91;4916999;28;45380;-79
2022/05/27 08:05:48;;;;;;;;;4.67;4.67;;;;;33.16;23.95;102037.28;4917067;28;46492;-79
2022/05/27 08:08:14;;;;;;;;;7.33;6.00;;;;;33.16;23.50;102025.38;4915917;28;45917;-79
2022/05/27 08:10:40;;;;;;;;;7.00;6.00;;;;;33.33;24.28;102043.72;4917048;28;45353;-79
2022/05/27 08:13:07;;;;;;;;;8.67;6.33;;;;;33.28;24.14;102057.72;4916037;28;45375;-79
2022/05/27 08:15:32;;;;;;;;;6.33;6.33;;;;;33.23;24.08;102050.72;4916973;28;46609;-79
2022/05/27 08:17:58;;;;;;;;;4.67;4.67;;;;;33.29;24.39;102054.03;4916529;28;45285;-79
2022/05/27 08:20:27;;;;;;;;;5.33;5.33;;;;;33.11;24.00;102052.28;4917248;28;45353;-80
2022/05/27 08:22:53;;;;;;;;;4.00;4.00;;;;;32.96;24.07;102043.00;4915622;28;45422;-79
2022/05/27 08:25:20;;;;;;;;;7.00;5.00;;;;;32.75;23.90;101990.13;4915482;28;47102;-79
2022/05/27 08:27:46;;;;;;;;;7.00;6.00;;;;;32.83;24.50;102021.69;4916439;28;45625;-80
2022/05/27 08:30:14;;;;;;;;;7.00;7.00;;;;;33.24;24.25;102058.88;4915682;28;45543;-80
2022/05/27 08:32:40;;;;;;;;;7.67;7.00;;;;;33.37;23.78;102058.19;4916937;28;45419;-80
2022/05/27 08:38:03;;;;;;;;;7.33;6.00;;;;;33.28;23.86;102043.09;4916772;28;45461;-79
2022/05/27 08:40:35;;;;;;;;;5.33;5.33;;;;;33.37;24.00;102056.31;4916852;28;45516;-79
2022/05/27 08:43:12;;;;;;;;;6.00;5.00;;;;;33.39;23.84;102059.88;4916752;28;45700;-79
2022/05/27 08:45:53;;;;;;;;;7.00;6.33;;;;;33.45;23.69;102066.91;4914988;28;48552;-80
2022/05/27 08:48:21;;;;;;;;;7.00;6.67;;;;;33.33;23.69;102051.97;4916497;28;45260;-79
2022/05/27 08:50:51;;;;;;;;;6.00;6.00;;;;;33.39;24.00;102034.22;4915314;28;45227;-79
2022/05/27 08:53:41;;;;;;;;;7.00;5.33;;;;;33.49;23.79;102052.00;4916815;28;45659;-79
2022/05/27 09:01:51;;;;;;;;;8.33;8.00;;;;;33.61;23.45;102042.13;4916396;28;45348;-79
2022/05/27 09:04:38;;;;;;;;;8.00;6.67;;;;;33.73;23.92;102060.69;4916523;28;45499;-79
2022/05/27 09:07:42;;;;;;;;;6.33;6.00;;;;;33.75;23.80;102066.09;4915599;28;46142;-79
2022/05/27 09:10:13;;;;;;;;;8.00;6.67;;;;;33.52;24.13;102054.56;4917849;28;45538;-80
2022/05/27 09:12:56;;;;;;;;;7.67;7.33;;;;;33.28;23.74;102037.59;4914920;28;45424;-80
2022/05/27 09:15:32;;;;;;;;;10.67;9.00;;;;;33.39;23.99;102057.13;4916344;28;45454;-79
2022/05/27 09:18:46;;;;;;;;;7.33;6.33;;;;;33.47;23.70;102063.09;4915895;28;45917;-80
2022/05/27 09:21:23;;;;;;;;;7.67;6.67;;;;;33.54;23.89;102059.97;4915173;28;46310;-79
2022/05/27 09:24:12;;;;;;;;;8.00;5.67;;;;;33.55;23.95;102061.75;4916406;28;45517;-79
2022/05/27 09:26:51;;;;;;;;;5.67;3.33;;;;;33.63;23.73;102063.06;4916184;28;45511;-79
2022/05/27 09:30:10;;;;;;;;;5.67;5.67;;;;;33.76;23.60;102065.16;4914375;28;47167;-80
2022/05/27 09:32:54;;;;;;;;;5.00;5.00;;;;;33.95;23.95;102064.94;4955157;28;45419;-80
2022/05/27 09:35:31;;;;;;;;;5.67;5.67;;;;;33.82;23.92;102062.91;4955447;28;45448;-80
2022/05/27 09:38:01;;;;;;;;;4.67;4.67;;;;;33.71;23.92;102051.59;4955017;28;46495;-79
2022/05/27 09:40:46;;;;;;;;;7.00;7.00;;;;;33.89;23.83;102049.66;4955072;28;46290;-79
2022/05/27 09:43:28;;;;;;;;;5.33;5.33;;;;;33.84;23.73;102029.81;4955037;28;45582;-79
2022/05/27 09:46:15;;;;;;;;;5.00;5.00;;;;;33.69;24.67;102042.56;4955390;28;45512;-80
2022/05/27 09:48:40;;;;;;;;;5.67;4.67;;;;;33.79;24.53;102052.06;4954984;28;45605;-79
2022/05/27 09:51:08;;;;;;;;;8.33;6.00;;;;;33.79;24.65;102046.56;4954885;28;47012;-80
2022/05/27 09:53:40;;;;;;;;;6.00;6.00;;;;;33.53;24.43;102009.56;4955042;28;45492;-79
2022/05/27 09:56:11;;;;;;;;;4.00;4.00;;;;;33.75;24.33;102068.84;4954968;28;45457;-79
2022/05/27 09:58:40;;;;;;;;;4.67;4.67;;;;;33.88;24.95;102052.53;4954827;28;45469;-79
2022/05/27 10:01:23;;;;;;;;;3.33;3.33;;;;;33.99;24.83;102061.03;4954737;28;46555;-80
2022/05/27 10:04:12;;;;;;;;;6.67;4.67;;;;;34.19;23.85;102052.47;4954739;28;45579;-79
2022/05/27 10:06:39;;;;;;;;;5.33;5.33;;;;;34.41;24.24;102051.16;4934642;28;45297;-79
2022/05/27 10:09:24;;;;;;;;;5.33;4.67;;;;;34.18;24.36;102019.50;4915850;28;45320;-79
2022/05/27 10:11:52;;;;;;;;;7.33;5.33;;;;;34.28;24.23;102039.09;4915126;28;46716;-79
2022/05/27 10:14:33;;;;;;;;;6.00;4.00;;;;;34.29;24.06;102049.16;4915698;28;45411;-79
2022/05/27 10:17:08;;;;;;;;;5.00;4.33;;;;;34.35;24.24;102054.31;4915618;28;45315;-80
2022/05/27 10:19:33;;;;;;;;;5.00;5.00;;;;;34.36;23.93;102011.97;4914341;28;45447;-80
2022/05/27 10:22:02;;;;;;;;;1.67;1.67;;;;;34.45;23.95;102033.47;4915416;28;45457;-79
2022/05/27 10:24:40;;;;;;;;;6.00;5.33;;;;;34.38;24.19;102034.81;4914284;28;45361;-79
2022/05/27 10:27:11;;;;;;;;;6.33;5.00;;;;;34.47;24.34;102033.38;4915124;28;45425;-80
2022/05/27 10:30:21;;;;;;;;;5.00;4.00;;;;;34.65;24.25;102042.34;4915501;28;45427;-80
2022/05/27 10:32:46;;;;;;;;;4.00;2.33;;;;;34.59;23.79;102012.44;4954132;28;45473;-80
2022/05/27 10:35:20;;;;;;;;;3.67;3.67;;;;;34.82;23.91;102035.81;4954338;28;45602;-80
2022/05/27 10:37:57;;;;;;;;;4.67;4.00;;;;;34.77;24.08;102019.53;4954400;28;45469;-79
2022/05/27 10:40:38;;;;;;;;;4.00;4.00;;;;;34.75;23.85;102006.81;4954247;28;45674;-79
2022/05/27 10:43:19;;;;;;;;;5.33;4.33;;;;;35.06;23.60;102033.31;4953835;28;46696;-80
2022/05/27 10:45:47;;;;;;;;;6.67;4.67;;;;;35.07;23.36;102020.44;4954185;28;45390;-79
2022/05/27 10:48:31;;;;;;;;;3.67;3.67;;;;;35.05;23.76;102020.56;4954353;28;45473;-79
2022/05/27 10:51:19;;;;;;;;;3.67;3.00;;;;;35.17;23.67;102033.50;4953943;28;45434;-79
2022/05/27 10:53:52;;;;;;;;;5.00;5.00;;;;;35.07;23.52;102028.72;4954132;28;45576;-79
2022/05/27 10:56:42;;;;;;;;;4.00;4.00;;;;;34.91;23.62;102017.78;4953852;28;45593;-79
2022/05/27 11:02:27;;;;;;;;;4.33;4.00;;;;;34.89;23.91;102028.03;4953755;28;45422;-79
2022/05/27 11:05:11;;;;;;;;;3.00;3.00;;;;;34.97;23.80;102029.31;4953561;28;46625;-79
2022/05/27 11:07:55;;;;;;;;;4.00;4.00;;;;;35.04;23.52;102032.56;4942835;28;45447;-79
2022/05/27 11:10:27;;;;;;;;;4.33;4.00;;;;;35.03;23.77;102028.03;4912704;28;45230;-79
2022/05/27 11:15:45;;;;;;;;;3.67;3.67;;;;;35.08;23.89;102030.47;4912583;28;45499;-79
2022/05/27 11:18:29;;;;;;;;;4.67;4.00;;;;;35.06;23.75;102030.56;4912341;28;45375;-79
2022/05/27 11:21:15;;;;;;;;;4.67;4.67;;;;;35.19;23.80;102034.31;4912525;28;45474;-79
2022/05/27 11:24:08;;;;;;;;;2.67;2.67;;;;;34.92;23.73;102030.59;4896671;28;45500;-79
2022/05/27 11:26:55;;;;;;;;;4.00;4.00;;;;;34.77;24.03;102004.84;4895909;28;46292;-80
2022/05/27 11:29:35;;;;;;;;;4.00;3.00;;;;;34.82;24.04;102028.41;4912129;28;45508;-79
2022/05/27 11:32:01;;;;;;;;;5.33;4.00;;;;;34.89;24.03;102028.03;4915415;28;45516;-79
2022/05/27 11:34:39;;;;;;;;;4.33;3.67;;;;;35.04;23.98;102024.28;4915659;28;45481;-79
2022/05/27 11:37:23;;;;;;;;;5.00;4.00;;;;;35.15;23.69;102029.97;4915152;28;45430;-80
2022/05/27 11:40:25;;;;;;;;;3.00;3.00;;;;;35.20;23.69;102021.41;4910989;28;46268;-80
2022/05/27 11:42:59;;;;;;;;;4.00;4.00;;;;;35.20;23.51;102016.78;4917536;28;45439;-80
2022/05/27 11:45:28;;;;;;;;;3.67;3.67;;;;;35.27;23.73;102010.84;4917536;28;45408;-80
2022/05/27 11:48:02;;;;;;;;;5.00;4.00;;;;;35.26;23.66;102009.97;4917316;28;45480;-80
2022/05/27 11:50:40;;;;;;;;;4.00;3.00;;;;;35.18;23.57;102002.19;4916109;28;45488;-79
2022/05/27 11:53:25;;;;;;;;;3.67;3.67;;;;;35.32;23.73;102008.72;4916235;28;45362;-79
2022/05/27 11:56:15;;;;;;;;;6.67;4.67;;;;;35.16;23.65;101971.09;4917389;28;45378;-80
2022/05/27 11:59:06;;;;;;;;;3.00;3.00;;;;;35.46;23.30;102008.66;4917230;28;45454;-80
2022/05/27 12:01:38;;;;;;;;;5.00;5.00;;;;;35.20;23.36;101975.41;4918786;28;45396;-79
2022/05/27 12:04:30;;;;;;;;;4.00;4.00;;;;;35.43;23.47;102011.66;4917222;28;45510;-80
2022/05/27 12:07:06;;;;;;;;;3.00;3.00;;;;;35.55;23.18;101991.47;4917387;28;45343;-81
2022/05/27 12:09:52;;;;;;;;;4.00;4.00;;;;;35.63;23.41;101993.72;4916831;28;46324;-80
2022/05/27 12:12:24;;;;;;;;;7.00;7.00;;;;;35.79;23.23;101998.19;4916939;28;45478;-80
2022/05/27 12:14:57;;;;;;;;;3.00;3.00;;;;;35.71;23.03;101993.19;4917169;28;45513;-80
2022/05/27 12:17:34;;;;;;;;;4.00;4.00;;;;;35.45;23.15;101953.59;4917068;28;45220;-80
2022/05/27 12:20:02;;;;;;;;;4.33;4.33;;;;;35.65;22.99;102005.53;4915426;28;47102;-80